createdAt,value
2023-02-27T00:02:37.699Z,1.00
2023-02-27T00:05:40.343Z,0.70
2023-02-27T00:08:42.799Z,0.80
2023-02-27T00:11:45.756Z,0.70
2023-02-27T00:14:48.975Z,0.80
2023-02-27T00:17:52.289Z,0.80
2023-02-27T00:20:55.703Z,0.90
2023-02-27T00:23:58.778Z,0.73
2023-02-27T00:27:01.487Z,0.70
2023-02-27T00:30:04.001Z,0.88
2023-02-27T00:33:06.682Z,0.70
2023-02-27T00:36:09.306Z,0.65
2023-02-27T00:39:12.532Z,0.65
2023-02-27T00:42:16.122Z,0.70
2023-02-27T00:45:19.071Z,0.80
2023-02-27T00:48:23.350Z,0.90
2023-02-27T00:51:25.871Z,0.80
2023-02-27T00:54:28.315Z,0.80
2023-02-27T00:57:30.779Z,0.90
2023-02-27T01:00:33.858Z,0.85
2023-02-27T01:03:36.207Z,0.73
2023-02-27T01:06:38.366Z,0.77
2023-02-27T01:09:40.762Z,0.80
2023-02-27T01:12:42.759Z,1.00
2023-02-27T01:15:45.537Z,0.90
2023-02-27T01:18:48.004Z,0.80
2023-02-27T01:21:51.216Z,0.75
2023-02-27T01:24:55.890Z,0.80
2023-02-27T01:27:58.676Z,0.80
2023-02-27T01:31:01.636Z,0.65
2023-02-27T01:34:04.404Z,0.95
2023-02-27T01:37:07.384Z,0.68
2023-02-27T01:40:10.009Z,0.70
2023-02-27T01:43:12.664Z,0.77
2023-02-27T01:46:15.695Z,0.80
2023-02-27T01:49:19.530Z,0.60
2023-02-27T01:52:21.941Z,0.80
2023-02-27T01:55:24.777Z,0.90
2023-02-27T01:58:27.476Z,0.80
2023-02-27T02:01:30.332Z,0.80
2023-02-27T02:04:33.162Z,0.90
2023-02-27T02:07:36.114Z,0.95
2023-02-27T02:10:40.340Z,0.90
2023-02-27T02:13:43.808Z,0.80
2023-02-27T02:16:47.286Z,0.90
2023-02-27T02:19:50.194Z,0.93
2023-02-27T02:22:53.299Z,1.00
2023-02-27T02:25:56.659Z,0.90
2023-02-27T02:28:59.614Z,0.90
2023-02-27T02:32:03.747Z,0.90
2023-02-27T02:35:06.867Z,0.82
2023-02-27T02:38:09.529Z,0.73
2023-02-27T02:41:14.931Z,0.80
2023-02-27T02:44:17.920Z,0.77
2023-02-27T02:47:20.953Z,0.70
2023-02-27T02:50:23.513Z,0.88
2023-02-27T02:53:31.062Z,1.00
2023-02-27T02:56:39.621Z,0.73
2023-02-27T02:59:42.696Z,0.63
2023-02-27T03:02:46.065Z,0.70
2023-02-27T03:05:49.595Z,1.00
2023-02-27T03:08:52.582Z,1.02
2023-02-27T03:11:54.808Z,0.93
2023-02-27T03:14:57.523Z,0.80
2023-02-27T03:17:59.944Z,0.80
2023-02-27T03:21:02.676Z,0.80
2023-02-27T03:24:05.477Z,0.80
2023-02-27T03:27:09.655Z,0.82
2023-02-27T03:30:12.752Z,0.90
2023-02-27T03:33:15.088Z,0.85
2023-02-27T03:36:18.906Z,0.85
2023-02-27T03:39:21.934Z,0.85
2023-02-27T03:42:24.802Z,0.82
2023-02-27T03:45:54.199Z,0.80
2023-02-27T03:48:57.156Z,0.88
2023-02-27T03:51:59.489Z,0.88
2023-02-27T03:55:02.667Z,0.80
2023-02-27T03:58:05.038Z,1.00
2023-02-27T04:01:07.763Z,1.00
2023-02-27T04:04:10.334Z,0.80
2023-02-27T04:07:35.585Z,0.90
2023-02-27T04:10:38.587Z,0.90
2023-02-27T04:13:41.105Z,1.17
2023-02-27T04:16:44.092Z,0.90
2023-02-27T04:19:46.611Z,0.95
2023-02-27T04:22:49.176Z,0.98
2023-02-27T04:25:51.861Z,1.00
2023-02-27T04:28:54.902Z,1.00
2023-02-27T04:31:58.015Z,0.80
2023-02-27T04:35:01.068Z,0.80
2023-02-27T04:38:03.878Z,0.80
2023-02-27T04:41:06.885Z,0.95
2023-02-27T04:44:09.942Z,0.90
2023-02-27T04:47:13.258Z,0.80
2023-02-27T04:50:16.524Z,0.93
2023-02-27T04:53:19.795Z,0.82
2023-02-27T04:56:22.270Z,1.00
2023-02-27T04:59:24.847Z,0.90
2023-02-27T05:02:28.270Z,1.00
2023-02-27T05:05:31.897Z,0.95
2023-02-27T05:08:34.570Z,1.10
2023-02-27T05:11:36.803Z,1.20
2023-02-27T05:14:39.454Z,0.90
2023-02-27T05:17:42.649Z,1.00
2023-02-27T05:20:46.499Z,1.00
2023-02-27T05:23:49.785Z,0.95
2023-02-27T05:26:52.794Z,1.02
2023-02-27T05:29:55.827Z,1.00
2023-02-27T05:32:58.770Z,1.00
2023-02-27T05:36:01.336Z,1.10
2023-02-27T05:39:04.185Z,1.02
2023-02-27T05:42:07.499Z,1.00
2023-02-27T05:45:10.444Z,0.80
2023-02-27T05:48:14.014Z,0.90
2023-02-27T05:51:16.968Z,0.93
2023-02-27T05:54:19.640Z,0.95
2023-02-27T05:57:22.180Z,0.82
2023-02-27T06:00:25.599Z,1.10
2023-02-27T06:03:28.803Z,1.00
2023-02-27T06:06:31.776Z,1.00
2023-02-27T06:09:34.562Z,1.00
2023-02-27T06:12:37.445Z,1.00
2023-02-27T06:15:40.350Z,1.20
2023-02-27T06:18:43.314Z,1.00
2023-02-27T06:21:46.288Z,0.85
2023-02-27T06:24:48.849Z,1.10
2023-02-27T06:27:51.796Z,0.90
2023-02-27T06:30:54.985Z,0.93
2023-02-27T06:33:57.882Z,1.00
2023-02-27T06:37:01.201Z,1.00
2023-02-27T06:40:04.892Z,0.90
2023-02-27T06:43:07.562Z,0.93
2023-02-27T06:46:10.563Z,0.90
2023-02-27T06:49:14.090Z,0.90
2023-02-27T06:52:16.653Z,0.90
2023-02-27T06:55:19.571Z,0.90
2023-02-27T06:58:22.256Z,0.98
2023-02-27T07:01:25.071Z,1.02
2023-02-27T07:04:28.328Z,1.02
2023-02-27T07:07:35.932Z,1.00
2023-02-27T07:10:40.100Z,0.93
2023-02-27T07:13:42.929Z,1.10
2023-02-27T07:16:45.950Z,0.93
2023-02-27T07:19:48.336Z,0.95
2023-02-27T07:22:51.765Z,1.13
2023-02-27T07:25:54.512Z,0.93
2023-02-27T07:28:57.276Z,1.15
2023-02-27T07:32:00.130Z,1.33
2023-02-27T07:35:03.109Z,1.10
2023-02-27T07:38:05.900Z,1.10
2023-02-27T07:41:12.096Z,1.00
2023-02-27T07:44:18.490Z,0.90
2023-02-27T07:47:21.761Z,1.05
2023-02-27T07:50:24.954Z,0.90
2023-02-27T07:53:27.637Z,0.73
2023-02-27T07:56:31.213Z,0.70
2023-02-27T07:59:34.687Z,0.80
2023-02-27T08:02:37.703Z,0.90
2023-02-27T08:05:40.723Z,0.90
2023-02-27T08:08:43.584Z,0.85
2023-02-27T08:11:48.802Z,1.00
2023-02-27T08:14:51.658Z,1.00
2023-02-27T08:17:54.152Z,1.27
2023-02-27T08:20:57.259Z,1.08
2023-02-27T08:24:00.098Z,1.02
2023-02-27T08:27:03.198Z,0.95
2023-02-27T08:30:06.634Z,1.10
2023-02-27T08:33:10.224Z,1.00
2023-02-27T08:36:13.081Z,0.90
2023-02-27T08:39:16.443Z,0.93
2023-02-27T08:42:19.768Z,1.10
2023-02-27T08:45:23.121Z,0.80
2023-02-27T08:48:26.547Z,0.82
2023-02-27T08:51:29.350Z,0.80
2023-02-27T08:54:32.230Z,0.88
2023-02-27T08:57:34.911Z,0.80
2023-02-27T09:00:38.406Z,0.90
2023-02-27T09:03:41.236Z,0.80
2023-02-27T09:06:43.950Z,0.95
2023-02-27T09:09:47.263Z,0.63
2023-02-27T09:12:50.138Z,0.80
2023-02-27T09:15:52.484Z,0.80
2023-02-27T09:18:54.777Z,0.90
2023-02-27T09:21:58.687Z,0.88
2023-02-27T09:25:01.529Z,0.90
2023-02-27T09:28:04.522Z,0.80
2023-02-27T09:31:07.634Z,0.80
2023-02-27T09:34:10.753Z,0.70
2023-02-27T09:37:14.682Z,0.88
2023-02-27T09:40:18.594Z,0.80
2023-02-27T09:43:21.632Z,1.00
2023-02-27T09:46:24.434Z,1.00
2023-02-27T09:49:26.702Z,0.80
2023-02-27T09:52:29.423Z,0.75
2023-02-27T09:55:31.464Z,0.70
2023-02-27T09:58:34.711Z,0.80
2023-02-27T10:01:37.522Z,0.65
2023-02-27T10:04:40.541Z,0.70
2023-02-27T10:07:43.504Z,0.90
2023-02-27T10:10:46.780Z,0.88
2023-02-27T10:13:49.862Z,0.88
2023-02-27T10:16:52.668Z,0.80
2023-02-27T10:19:55.633Z,0.85
2023-02-27T10:22:58.615Z,0.77
2023-02-27T10:26:01.554Z,0.80
2023-02-27T10:29:04.253Z,0.90
2023-02-27T10:32:06.677Z,0.80
2023-02-27T10:35:09.528Z,0.77
2023-02-27T10:38:12.709Z,0.80
2023-02-27T10:41:16.187Z,1.00
2023-02-27T10:44:19.404Z,0.80
2023-02-27T10:47:23.209Z,0.90
2023-02-27T10:50:26.178Z,0.70
2023-02-27T10:53:28.912Z,0.88
2023-02-27T10:56:31.428Z,0.73
2023-02-27T10:59:34.389Z,0.70
2023-02-27T11:02:38.077Z,0.70
2023-02-27T11:05:40.678Z,0.55
2023-02-27T11:08:43.850Z,0.70
2023-02-27T11:11:47.310Z,0.80
2023-02-27T11:14:51.229Z,0.60
2023-02-27T11:17:54.683Z,0.68
2023-02-27T11:20:58.612Z,0.60
2023-02-27T11:24:02.215Z,0.63
2023-02-27T11:27:05.485Z,0.70
2023-02-27T11:30:08.507Z,0.70
2023-02-27T11:33:11.192Z,0.60
2023-02-27T11:36:17.713Z,0.73
2023-02-27T11:39:21.136Z,0.60
2023-02-27T11:42:23.615Z,0.63
2023-02-27T11:46:04.938Z,0.70
2023-02-27T11:48:49.643Z,0.75
2023-02-27T11:51:52.567Z,0.60
2023-02-27T11:54:54.920Z,0.60
2023-02-27T11:57:57.337Z,0.50
2023-02-27T12:01:00.118Z,0.60
2023-02-27T12:04:02.691Z,0.50
2023-02-27T12:07:05.115Z,0.50
2023-02-27T12:10:07.791Z,0.73
2023-02-27T12:13:10.102Z,0.70
2023-02-27T12:16:12.985Z,0.60
2023-02-27T12:19:15.738Z,0.60
2023-02-27T12:22:18.247Z,0.50
2023-02-27T12:25:20.435Z,0.50
2023-02-27T12:28:22.393Z,0.50
2023-02-27T12:31:25.771Z,0.63
2023-02-27T12:34:28.523Z,0.60
2023-02-27T12:37:31.474Z,0.50
2023-02-27T12:40:34.327Z,0.57
2023-02-27T12:43:37.244Z,0.60
2023-02-27T12:46:40.145Z,0.50
2023-02-27T12:49:42.951Z,0.57
2023-02-27T12:52:46.263Z,0.50
2023-02-27T12:55:49.718Z,0.55
2023-02-27T12:58:53.124Z,0.65
2023-02-27T13:01:55.919Z,0.60
2023-02-27T13:04:58.648Z,0.60
2023-02-27T13:08:00.960Z,0.63
2023-02-27T13:11:03.739Z,0.60
2023-02-27T13:14:06.728Z,0.55
2023-02-27T13:17:09.688Z,0.60
2023-02-27T13:20:11.988Z,0.70
2023-02-27T13:23:14.508Z,0.60
2023-02-27T13:26:17.948Z,0.63
2023-02-27T13:29:21.079Z,0.40
2023-02-27T13:32:30.006Z,0.63
2023-02-27T13:35:44.179Z,0.57
2023-02-27T13:38:47.148Z,0.65
2023-02-27T13:41:50.347Z,0.68
2023-02-27T13:44:53.181Z,0.60
2023-02-27T13:47:56.998Z,0.63
2023-02-27T13:50:59.778Z,0.52
2023-02-27T13:54:02.842Z,0.60
2023-02-27T13:57:05.861Z,0.50
2023-02-27T14:00:08.482Z,0.52
2023-02-27T14:03:18.271Z,0.40
2023-02-27T14:06:21.010Z,0.50
2023-02-27T14:09:24.106Z,0.40
2023-02-27T14:12:28.904Z,0.45
2023-02-27T14:15:34.130Z,0.50
2023-02-27T14:18:37.449Z,0.60
2023-02-27T14:21:40.313Z,0.50
2023-02-27T14:25:01.190Z,0.40
2023-02-27T14:28:05.287Z,0.50
2023-02-27T14:31:08.684Z,0.38
2023-02-27T14:34:11.224Z,0.60
2023-02-27T14:37:13.710Z,0.45
2023-02-27T14:40:24.605Z,0.63
2023-02-27T14:43:33.398Z,0.45
2023-02-27T14:46:36.940Z,0.60
2023-02-27T14:49:39.647Z,0.50
2023-02-27T14:52:42.451Z,0.60
2023-02-27T14:55:45.185Z,0.40
2023-02-27T14:58:55.587Z,0.70
2023-02-27T15:02:05.900Z,0.40
2023-02-27T15:05:09.120Z,0.47
2023-02-27T15:08:12.533Z,0.50
2023-02-27T15:11:15.891Z,0.70
2023-02-27T15:14:19.119Z,0.57
2023-02-27T15:17:22.660Z,0.40
2023-02-27T15:20:25.784Z,0.40
2023-02-27T15:23:27.889Z,0.52
2023-02-27T15:26:31.018Z,0.60
2023-02-27T15:29:33.894Z,0.60
2023-02-27T15:32:36.506Z,0.60
2023-02-27T15:35:39.571Z,0.60
2023-02-27T15:38:43.078Z,0.50
2023-02-27T15:41:45.721Z,0.40
2023-02-27T15:44:48.299Z,0.63
2023-02-27T15:47:50.821Z,0.50
2023-02-27T15:50:53.453Z,0.60
2023-02-27T15:53:56.719Z,0.43
2023-02-27T15:56:59.626Z,0.65
2023-02-27T16:00:01.898Z,0.50
2023-02-27T16:03:13.955Z,0.50
2023-02-27T16:06:16.896Z,0.57
2023-02-27T16:09:20.793Z,0.60
2023-02-27T16:12:23.829Z,0.60
2023-02-27T16:15:26.487Z,0.65
2023-02-27T16:18:29.179Z,0.50
2023-02-27T16:21:32.242Z,0.60
2023-02-27T16:24:35.036Z,0.50
2023-02-27T16:27:37.816Z,0.50
2023-02-27T16:30:40.481Z,0.50
2023-02-27T16:33:44.024Z,0.55
2023-02-27T16:36:46.663Z,0.50
2023-02-27T16:39:49.424Z,0.63
2023-02-27T16:42:52.642Z,0.60
2023-02-27T16:45:56.208Z,0.50
2023-02-27T16:49:00.701Z,0.50
2023-02-27T16:52:07.364Z,0.45
2023-02-27T16:55:11.163Z,0.38
2023-02-27T16:58:14.102Z,0.70
2023-02-27T17:01:17.845Z,0.45
2023-02-27T17:04:25.830Z,0.50
2023-02-27T17:07:28.817Z,0.60
2023-02-27T17:10:32.280Z,0.40
2023-02-27T17:13:35.643Z,0.40
2023-02-27T17:16:38.016Z,0.40
2023-02-27T17:19:40.755Z,0.60
2023-02-27T17:22:43.057Z,0.50
2023-02-27T17:25:47.057Z,0.40
2023-02-27T17:28:50.287Z,0.60
2023-02-27T17:31:53.332Z,0.40
2023-02-27T17:34:56.070Z,0.60
2023-02-27T17:37:58.985Z,0.50
2023-02-27T17:41:02.000Z,0.40
2023-02-27T17:44:04.706Z,0.60
2023-02-27T17:47:07.481Z,0.50
2023-02-27T17:50:10.140Z,0.50
2023-02-27T17:53:13.900Z,0.45
2023-02-27T17:56:16.769Z,0.65
2023-02-27T17:59:19.865Z,0.60
2023-02-27T18:02:23.346Z,0.60
2023-02-27T18:05:26.666Z,0.60
2023-02-27T18:08:29.728Z,0.40
2023-02-27T18:11:32.398Z,0.55
2023-02-27T18:14:35.092Z,0.70
2023-02-27T18:17:38.863Z,0.50
2023-02-27T18:20:42.008Z,0.57
2023-02-27T18:23:45.412Z,0.50
2023-02-27T18:26:48.952Z,0.60
2023-02-27T18:29:51.362Z,0.40
2023-02-27T18:32:54.445Z,0.68
2023-02-27T18:35:57.029Z,0.63
2023-02-27T18:38:59.309Z,0.65
2023-02-27T18:42:02.612Z,0.50
2023-02-27T18:45:05.684Z,0.55
2023-02-27T18:48:08.230Z,0.52
2023-02-27T18:51:11.224Z,0.32
2023-02-27T18:54:13.446Z,0.60
2023-02-27T18:57:16.153Z,0.60
2023-02-27T19:00:19.093Z,0.50
2023-02-27T19:03:22.718Z,0.50
2023-02-27T19:06:25.166Z,0.40
2023-02-27T19:09:28.745Z,0.50
2023-02-27T19:12:31.824Z,0.45
2023-02-27T19:15:35.326Z,0.50
2023-02-27T19:18:38.389Z,0.47
2023-02-27T19:21:40.611Z,0.40
2023-02-27T19:24:43.131Z,0.50
2023-02-27T19:27:45.717Z,0.50
2023-02-27T19:30:48.882Z,0.40
2023-02-27T19:33:51.941Z,0.60
2023-02-27T19:36:54.700Z,0.52
2023-02-27T19:39:57.032Z,0.50
2023-02-27T19:42:59.647Z,0.60
2023-02-27T19:46:03.099Z,0.50
2023-02-27T19:49:06.310Z,0.68
2023-02-27T19:52:10.417Z,0.50
2023-02-27T19:55:13.851Z,0.60
2023-02-27T19:58:16.363Z,0.68
2023-02-27T20:01:19.035Z,0.60
2023-02-27T20:04:22.638Z,0.40
2023-02-27T20:07:25.433Z,0.57
2023-02-27T20:10:28.607Z,0.50
2023-02-27T20:13:31.075Z,0.60
2023-02-27T20:16:33.479Z,0.57
2023-02-27T20:19:36.354Z,0.50
2023-02-27T20:22:38.784Z,0.70
2023-02-27T20:25:41.539Z,0.52
2023-02-27T20:28:43.780Z,0.50
2023-02-27T20:31:46.410Z,0.60
2023-02-27T20:34:48.921Z,0.68
2023-02-27T20:37:51.704Z,0.60
2023-02-27T20:40:54.431Z,0.63
2023-02-27T20:43:56.855Z,0.80
2023-02-27T20:46:59.516Z,0.60
2023-02-27T20:50:02.507Z,0.70
2023-02-27T20:53:05.474Z,0.55
2023-02-27T20:56:08.701Z,0.90
2023-02-27T20:59:12.518Z,0.80
2023-02-27T21:02:15.511Z,0.80
2023-02-27T21:05:18.252Z,0.80
2023-02-27T21:08:20.929Z,0.90
2023-02-27T21:11:24.306Z,0.85
2023-02-27T21:14:27.635Z,0.88
2023-02-27T21:17:31.042Z,0.73
2023-02-27T21:20:33.809Z,0.80
2023-02-27T21:23:36.491Z,0.90
2023-02-27T21:26:39.544Z,0.90
2023-02-27T21:29:42.527Z,0.90
2023-02-27T21:32:45.901Z,0.70
2023-02-27T21:35:48.488Z,0.77
2023-02-27T21:38:51.486Z,0.77
2023-02-27T21:41:54.205Z,1.10
2023-02-27T21:44:56.989Z,1.00
2023-02-27T21:48:00.558Z,0.80
2023-02-27T21:51:03.325Z,0.98
2023-02-27T21:54:06.428Z,0.80
2023-02-27T21:57:10.415Z,1.10
2023-02-27T22:00:13.968Z,0.88
2023-02-27T22:03:16.230Z,1.02
2023-02-27T22:06:18.496Z,1.00
2023-02-27T22:09:21.226Z,1.00
2023-02-27T22:12:24.163Z,0.90
2023-02-27T22:15:27.196Z,1.27
2023-02-27T22:18:30.678Z,1.00
2023-02-27T22:21:32.903Z,1.10
2023-02-27T22:24:36.097Z,0.95
2023-02-27T22:27:39.631Z,1.10
2023-02-27T22:30:42.812Z,0.90
2023-02-27T22:33:46.211Z,0.98
2023-02-27T22:36:50.104Z,0.80
2023-02-27T22:39:52.599Z,0.80
2023-02-27T22:42:54.999Z,1.10
2023-02-27T22:45:58.421Z,0.77
2023-02-27T22:49:01.963Z,0.98
2023-02-27T22:52:05.239Z,0.93
2023-02-27T22:55:09.047Z,1.00
2023-02-27T22:58:11.548Z,1.17
2023-02-27T23:01:14.269Z,1.10
2023-02-27T23:04:17.362Z,1.00
2023-02-27T23:07:20.859Z,1.20
2023-02-27T23:10:24.627Z,1.00
2023-02-27T23:13:27.686Z,1.23
2023-02-27T23:16:30.000Z,1.38
2023-02-27T23:19:33.044Z,1.08
2023-02-27T23:22:35.529Z,1.02
2023-02-27T23:25:38.747Z,1.10
2023-02-27T23:28:41.815Z,1.00
2023-02-27T23:31:45.155Z,0.90
2023-02-27T23:34:50.025Z,1.20
2023-02-27T23:37:53.192Z,1.13
2023-02-27T23:40:56.624Z,0.90
2023-02-27T23:43:59.281Z,0.90
2023-02-27T23:47:01.514Z,1.08
2023-02-27T23:50:04.256Z,1.10
2023-02-27T23:53:06.460Z,1.02
2023-02-27T23:56:09.237Z,1.00
2023-02-27T23:59:12.341Z,1.10
